sensor_id;sensor_type;location;lat;lon;timestamp;temperature;humidity
68251;DHT22;55066;51.560;4.642;2023-08-21T00:02:22;20.56;88.97
68251;DHT22;55066;51.560;4.642;2023-08-21T00:04:47;20.52;88.79
68251;DHT22;55066;51.560;4.642;2023-08-21T00:07:13;20.55;89.15
68251;DHT22;55066;51.560;4.642;2023-08-21T00:09:38;20.44;89.21
68251;DHT22;55066;51.560;4.642;2023-08-21T00:12:04;20.51;88.68
68251;DHT22;55066;51.560;4.642;2023-08-21T00:14:30;20.61;88.44
68251;DHT22;55066;51.560;4.642;2023-08-21T00:16:55;20.55;88.97
68251;DHT22;55066;51.560;4.642;2023-08-21T00:19:21;20.56;88.43
68251;DHT22;55066;51.560;4.642;2023-08-21T00:21:46;20.51;88.52
68251;DHT22;55066;51.560;4.642;2023-08-21T00:24:12;20.35;88.93
68251;DHT22;55066;51.560;4.642;2023-08-21T00:26:37;20.14;90.34
68251;DHT22;55066;51.560;4.642;2023-08-21T00:29:03;20.05;90.07
68251;DHT22;55066;51.560;4.642;2023-08-21T00:31:28;20.01;89.82
68251;DHT22;55066;51.560;4.642;2023-08-21T00:33:54;20.10;89.90
68251;DHT22;55066;51.560;4.642;2023-08-21T00:36:19;20.07;89.63
68251;DHT22;55066;51.560;4.642;2023-08-21T00:38:45;20.09;89.52
68251;DHT22;55066;51.560;4.642;2023-08-21T00:41:12;20.24;89.08
68251;DHT22;55066;51.560;4.642;2023-08-21T00:43:37;20.33;88.73
68251;DHT22;55066;51.560;4.642;2023-08-21T00:46:03;20.31;89.23
68251;DHT22;55066;51.560;4.642;2023-08-21T00:48:29;20.26;89.20
68251;DHT22;55066;51.560;4.642;2023-08-21T00:50:54;20.27;88.77
68251;DHT22;55066;51.560;4.642;2023-08-21T00:53:21;20.34;88.92
68251;DHT22;55066;51.560;4.642;2023-08-21T00:55:47;20.26;89.31
68251;DHT22;55066;51.560;4.642;2023-08-21T00:58:12;20.10;90.45
68251;DHT22;55066;51.560;4.642;2023-08-21T01:00:39;20.05;89.57
68251;DHT22;55066;51.560;4.642;2023-08-21T01:03:06;20.00;89.98
68251;DHT22;55066;51.560;4.642;2023-08-21T01:05:32;19.86;92.41
68251;DHT22;55066;51.560;4.642;2023-08-21T01:08:10;19.69;90.87
68251;DHT22;55066;51.560;4.642;2023-08-21T01:10:56;19.83;90.36
68251;DHT22;55066;51.560;4.642;2023-08-21T01:15:50;19.68;91.11
68251;DHT22;55066;51.560;4.642;2023-08-21T01:18:17;19.72;90.29
68251;DHT22;55066;51.560;4.642;2023-08-21T01:20:43;19.75;89.84
68251;DHT22;55066;51.560;4.642;2023-08-21T01:23:09;19.80;89.75
68251;DHT22;55066;51.560;4.642;2023-08-21T01:25:35;19.72;90.40
68251;DHT22;55066;51.560;4.642;2023-08-21T01:28:03;19.69;89.83
68251;DHT22;55066;51.560;4.642;2023-08-21T01:30:31;19.66;90.53
68251;DHT22;55066;51.560;4.642;2023-08-21T01:33:02;19.71;90.32
68251;DHT22;55066;51.560;4.642;2023-08-21T01:35:31;19.65;90.39
68251;DHT22;55066;51.560;4.642;2023-08-21T01:37:58;19.62;89.97
68251;DHT22;55066;51.560;4.642;2023-08-21T01:40:26;19.66;89.83
68251;DHT22;55066;51.560;4.642;2023-08-21T01:42:55;19.59;89.93
68251;DHT22;55066;51.560;4.642;2023-08-21T01:45:21;19.59;89.73
68251;DHT22;55066;51.560;4.642;2023-08-21T01:47:46;19.59;89.86
68251;DHT22;55066;51.560;4.642;2023-08-21T01:50:13;19.69;89.35
68251;DHT22;55066;51.560;4.642;2023-08-21T01:52:38;19.69;89.55
68251;DHT22;55066;51.560;4.642;2023-08-21T01:55:04;19.57;89.79
68251;DHT22;55066;51.560;4.642;2023-08-21T01:57:32;19.55;89.55
68251;DHT22;55066;51.560;4.642;2023-08-21T01:59:57;19.54;89.65
68251;DHT22;55066;51.560;4.642;2023-08-21T02:02:23;19.48;90.93
68251;DHT22;55066;51.560;4.642;2023-08-21T02:04:48;19.45;89.89
68251;DHT22;55066;51.560;4.642;2023-08-21T02:07:15;19.48;89.70
68251;DHT22;55066;51.560;4.642;2023-08-21T02:09:40;19.47;89.78
68251;DHT22;55066;51.560;4.642;2023-08-21T02:12:06;19.42;90.82
68251;DHT22;55066;51.560;4.642;2023-08-21T02:14:31;19.44;89.91
68251;DHT22;55066;51.560;4.642;2023-08-21T02:16:57;19.52;89.82
68251;DHT22;55066;51.560;4.642;2023-08-21T02:19:23;19.51;90.33
68251;DHT22;55066;51.560;4.642;2023-08-21T02:21:48;19.59;89.23
68251;DHT22;55066;51.560;4.642;2023-08-21T02:24:14;19.52;89.64
68251;DHT22;55066;51.560;4.642;2023-08-21T02:26:39;19.51;90.92
68251;DHT22;55066;51.560;4.642;2023-08-21T02:29:05;19.41;91.73
68251;DHT22;55066;51.560;4.642;2023-08-21T02:31:32;19.36;89.87
68251;DHT22;55066;51.560;4.642;2023-08-21T02:33:57;19.18;90.18
68251;DHT22;55066;51.560;4.642;2023-08-21T02:36:23;19.14;90.37
68251;DHT22;55066;51.560;4.642;2023-08-21T02:38:49;19.10;90.62
68251;DHT22;55066;51.560;4.642;2023-08-21T02:41:15;19.00;90.46
68251;DHT22;55066;51.560;4.642;2023-08-21T02:43:40;18.93;90.64
68251;DHT22;55066;51.560;4.642;2023-08-21T02:46:06;18.92;90.64
68251;DHT22;55066;51.560;4.642;2023-08-21T02:48:31;18.95;90.57
68251;DHT22;55066;51.560;4.642;2023-08-21T02:50:57;18.96;90.57
68251;DHT22;55066;51.560;4.642;2023-08-21T02:53:22;18.87;91.06
68251;DHT22;55066;51.560;4.642;2023-08-21T02:55:48;18.75;92.53
68251;DHT22;55066;51.560;4.642;2023-08-21T02:58:14;18.69;91.37
68251;DHT22;55066;51.560;4.642;2023-08-21T03:00:39;18.73;90.96
68251;DHT22;55066;51.560;4.642;2023-08-21T03:03:05;18.66;92.33
68251;DHT22;55066;51.560;4.642;2023-08-21T03:05:31;18.59;91.65
68251;DHT22;55066;51.560;4.642;2023-08-21T03:07:56;18.60;91.20
68251;DHT22;55066;51.560;4.642;2023-08-21T03:10:22;18.66;91.72
68251;DHT22;55066;51.560;4.642;2023-08-21T03:12:49;18.76;91.00
68251;DHT22;55066;51.560;4.642;2023-08-21T03:15:14;18.82;90.55
68251;DHT22;55066;51.560;4.642;2023-08-21T03:17:40;18.77;92.03
68251;DHT22;55066;51.560;4.642;2023-08-21T03:20:07;18.68;90.65
68251;DHT22;55066;51.560;4.642;2023-08-21T03:22:33;18.69;90.59
68251;DHT22;55066;51.560;4.642;2023-08-21T03:24:59;18.66;90.92
68251;DHT22;55066;51.560;4.642;2023-08-21T03:27:24;18.59;91.14
68251;DHT22;55066;51.560;4.642;2023-08-21T03:29:50;18.48;92.78
68251;DHT22;55066;51.560;4.642;2023-08-21T03:32:17;18.27;92.87
68251;DHT22;55066;51.560;4.642;2023-08-21T03:34:43;18.28;91.72
68251;DHT22;55066;51.560;4.642;2023-08-21T03:37:10;18.30;91.52
68251;DHT22;55066;51.560;4.642;2023-08-21T03:39:36;18.28;91.59
68251;DHT22;55066;51.560;4.642;2023-08-21T03:42:01;18.24;91.48
68251;DHT22;55066;51.560;4.642;2023-08-21T03:44:27;18.22;91.67
68251;DHT22;55066;51.560;4.642;2023-08-21T03:46:52;18.17;91.75
68251;DHT22;55066;51.560;4.642;2023-08-21T03:49:18;18.13;92.37
68251;DHT22;55066;51.560;4.642;2023-08-21T03:51:44;18.10;91.94
68251;DHT22;55066;51.560;4.642;2023-08-21T03:54:09;18.11;91.96
68251;DHT22;55066;51.560;4.642;2023-08-21T03:56:36;18.05;91.72
68251;DHT22;55066;51.560;4.642;2023-08-21T03:59:01;18.04;91.72
68251;DHT22;55066;51.560;4.642;2023-08-21T04:01:27;17.97;91.79
68251;DHT22;55066;51.560;4.642;2023-08-21T04:03:52;17.96;93.17
68251;DHT22;55066;51.560;4.642;2023-08-21T04:06:18;17.93;91.85
68251;DHT22;55066;51.560;4.642;2023-08-21T04:08:43;17.93;91.99
68251;DHT22;55066;51.560;4.642;2023-08-21T04:11:09;17.90;92.14
68251;DHT22;55066;51.560;4.642;2023-08-21T04:13:34;17.90;91.81
68251;DHT22;55066;51.560;4.642;2023-08-21T04:16:00;17.77;92.16
68251;DHT22;55066;51.560;4.642;2023-08-21T04:18:25;17.80;91.94
68251;DHT22;55066;51.560;4.642;2023-08-21T04:20:51;17.83;91.73
68251;DHT22;55066;51.560;4.642;2023-08-21T04:23:16;17.79;92.39
68251;DHT22;55066;51.560;4.642;2023-08-21T04:25:42;17.75;91.90
68251;DHT22;55066;51.560;4.642;2023-08-21T04:28:08;17.75;92.01
68251;DHT22;55066;51.560;4.642;2023-08-21T04:30:34;17.66;92.18
68251;DHT22;55066;51.560;4.642;2023-08-21T04:33:00;17.75;91.72
68251;DHT22;55066;51.560;4.642;2023-08-21T04:35:25;17.72;92.17
68251;DHT22;55066;51.560;4.642;2023-08-21T04:37:51;17.72;92.05
68251;DHT22;55066;51.560;4.642;2023-08-21T04:40:19;17.72;91.80
68251;DHT22;55066;51.560;4.642;2023-08-21T04:42:46;17.79;91.66
68251;DHT22;55066;51.560;4.642;2023-08-21T04:45:13;17.97;92.38
68251;DHT22;55066;51.560;4.642;2023-08-21T04:47:38;18.11;90.85
68251;DHT22;55066;51.560;4.642;2023-08-21T04:50:04;18.13;90.29
68251;DHT22;55066;51.560;4.642;2023-08-21T04:52:30;18.00;90.69
68251;DHT22;55066;51.560;4.642;2023-08-21T04:54:55;18.01;90.44
68251;DHT22;55066;51.560;4.642;2023-08-21T04:57:21;18.00;90.70
68251;DHT22;55066;51.560;4.642;2023-08-21T04:59:47;17.98;90.64
68251;DHT22;55066;51.560;4.642;2023-08-21T05:02:13;18.03;90.55
68251;DHT22;55066;51.560;4.642;2023-08-21T05:04:39;18.17;90.39
68251;DHT22;55066;51.560;4.642;2023-08-21T05:07:05;18.31;90.20
68251;DHT22;55066;51.560;4.642;2023-08-21T05:09:31;18.35;89.73
68251;DHT22;55066;51.560;4.642;2023-08-21T05:11:57;18.30;93.48
68251;DHT22;55066;51.560;4.642;2023-08-21T05:14:23;18.17;90.24
68251;DHT22;55066;51.560;4.642;2023-08-21T05:16:49;18.13;91.66
68251;DHT22;55066;51.560;4.642;2023-08-21T05:19:16;18.18;90.13
68251;DHT22;55066;51.560;4.642;2023-08-21T05:21:42;18.15;90.75
68251;DHT22;55066;51.560;4.642;2023-08-21T05:24:07;18.03;91.98
68251;DHT22;55066;51.560;4.642;2023-08-21T05:26:36;18.01;90.27
68251;DHT22;55066;51.560;4.642;2023-08-21T05:29:02;18.03;90.50
68251;DHT22;55066;51.560;4.642;2023-08-21T05:31:28;18.14;90.03
68251;DHT22;55066;51.560;4.642;2023-08-21T05:33:54;18.28;89.79
68251;DHT22;55066;51.560;4.642;2023-08-21T05:36:20;18.42;90.33
68251;DHT22;55066;51.560;4.642;2023-08-21T05:38:45;18.62;89.01
68251;DHT22;55066;51.560;4.642;2023-08-21T05:41:13;18.79;88.47
68251;DHT22;55066;51.560;4.642;2023-08-21T05:43:39;18.89;88.84
68251;DHT22;55066;51.560;4.642;2023-08-21T05:46:08;18.96;88.49
68251;DHT22;55066;51.560;4.642;2023-08-21T05:48:34;18.92;88.46
68251;DHT22;55066;51.560;4.642;2023-08-21T05:50:59;18.89;87.86
68251;DHT22;55066;51.560;4.642;2023-08-21T05:53:25;18.83;87.87
68251;DHT22;55066;51.560;4.642;2023-08-21T05:55:52;18.80;88.28
68251;DHT22;55066;51.560;4.642;2023-08-21T05:58:18;18.83;88.71
68251;DHT22;55066;51.560;4.642;2023-08-21T06:00:44;18.86;88.01
68251;DHT22;55066;51.560;4.642;2023-08-21T06:03:10;18.83;88.34
68251;DHT22;55066;51.560;4.642;2023-08-21T06:05:58;18.87;88.27
68251;DHT22;55066;51.560;4.642;2023-08-21T06:08:24;18.95;87.65
68251;DHT22;55066;51.560;4.642;2023-08-21T06:10:53;18.89;88.74
68251;DHT22;55066;51.560;4.642;2023-08-21T06:13:18;18.80;89.77
68251;DHT22;55066;51.560;4.642;2023-08-21T06:15:46;18.77;90.83
68251;DHT22;55066;51.560;4.642;2023-08-21T06:18:13;18.68;89.07
68251;DHT22;55066;51.560;4.642;2023-08-21T06:20:42;18.75;93.69
68251;DHT22;55066;51.560;4.642;2023-08-21T06:23:08;18.85;87.87
68251;DHT22;55066;51.560;4.642;2023-08-21T06:25:33;19.03;87.34
68251;DHT22;55066;51.560;4.642;2023-08-21T06:27:58;19.13;88.66
68251;DHT22;55066;51.560;4.642;2023-08-21T06:30:25;19.17;89.37
68251;DHT22;55066;51.560;4.642;2023-08-21T06:32:51;19.30;86.97
68251;DHT22;55066;51.560;4.642;2023-08-21T06:35:16;19.65;87.14
68251;DHT22;55066;51.560;4.642;2023-08-21T06:37:42;20.12;88.79
68251;DHT22;55066;51.560;4.642;2023-08-21T06:40:08;20.49;88.62
68251;DHT22;55066;51.560;4.642;2023-08-21T06:42:34;20.65;92.37
68251;DHT22;55066;51.560;4.642;2023-08-21T06:45:00;20.68;87.77
68251;DHT22;55066;51.560;4.642;2023-08-21T06:47:26;20.75;83.73
68251;DHT22;55066;51.560;4.642;2023-08-21T06:49:51;20.62;87.48
68251;DHT22;55066;51.560;4.642;2023-08-21T06:52:17;20.54;93.43
68251;DHT22;55066;51.560;4.642;2023-08-21T06:54:44;20.48;88.06
68251;DHT22;55066;51.560;4.642;2023-08-21T06:57:09;20.44;87.68
68251;DHT22;55066;51.560;4.642;2023-08-21T06:59:35;20.43;85.60
68251;DHT22;55066;51.560;4.642;2023-08-21T07:02:02;20.56;89.15
68251;DHT22;55066;51.560;4.642;2023-08-21T07:04:28;20.71;86.40
68251;DHT22;55066;51.560;4.642;2023-08-21T07:06:53;20.91;88.87
68251;DHT22;55066;51.560;4.642;2023-08-21T07:09:19;21.02;90.77
68251;DHT22;55066;51.560;4.642;2023-08-21T07:11:44;21.24;85.76
68251;DHT22;55066;51.560;4.642;2023-08-21T07:14:10;21.41;83.40
68251;DHT22;55066;51.560;4.642;2023-08-21T07:16:37;21.69;84.31
68251;DHT22;55066;51.560;4.642;2023-08-21T07:19:03;21.86;84.69
68251;DHT22;55066;51.560;4.642;2023-08-21T07:21:28;22.12;82.62
68251;DHT22;55066;51.560;4.642;2023-08-21T07:23:55;22.40;86.60
68251;DHT22;55066;51.560;4.642;2023-08-21T07:26:20;22.94;84.59
68251;DHT22;55066;51.560;4.642;2023-08-21T07:28:46;23.09;82.11
68251;DHT22;55066;51.560;4.642;2023-08-21T07:31:12;23.18;85.58
68251;DHT22;55066;51.560;4.642;2023-08-21T07:33:37;23.47;82.18
68251;DHT22;55066;51.560;4.642;2023-08-21T07:36:04;23.20;81.49
68251;DHT22;55066;51.560;4.642;2023-08-21T07:38:31;23.18;84.89
68251;DHT22;55066;51.560;4.642;2023-08-21T07:41:09;23.26;83.47
68251;DHT22;55066;51.560;4.642;2023-08-21T07:43:44;22.78;88.32
68251;DHT22;55066;51.560;4.642;2023-08-21T07:46:12;22.88;88.20
68251;DHT22;55066;51.560;4.642;2023-08-21T07:48:41;22.49;86.18
68251;DHT22;55066;51.560;4.642;2023-08-21T07:51:07;22.41;86.99
68251;DHT22;55066;51.560;4.642;2023-08-21T07:53:33;22.32;89.66
68251;DHT22;55066;51.560;4.642;2023-08-21T07:56:02;22.16;89.32
68251;DHT22;55066;51.560;4.642;2023-08-21T07:58:29;22.03;92.39
68251;DHT22;55066;51.560;4.642;2023-08-21T08:00:54;22.29;87.48
68251;DHT22;55066;51.560;4.642;2023-08-21T08:03:20;22.53;87.73
68251;DHT22;55066;51.560;4.642;2023-08-21T08:05:46;22.58;87.50
68251;DHT22;55066;51.560;4.642;2023-08-21T08:08:11;22.68;89.31
68251;DHT22;55066;51.560;4.642;2023-08-21T08:10:38;22.61;89.28
68251;DHT22;55066;51.560;4.642;2023-08-21T08:13:04;22.65;89.45
68251;DHT22;55066;51.560;4.642;2023-08-21T08:15:30;22.83;87.62
68251;DHT22;55066;51.560;4.642;2023-08-21T08:17:55;22.96;89.79
68251;DHT22;55066;51.560;4.642;2023-08-21T08:20:21;23.04;87.39
68251;DHT22;55066;51.560;4.642;2023-08-21T08:22:46;23.22;86.69
68251;DHT22;55066;51.560;4.642;2023-08-21T08:25:12;23.39;88.14
68251;DHT22;55066;51.560;4.642;2023-08-21T08:27:39;23.69;87.17
68251;DHT22;55066;51.560;4.642;2023-08-21T08:30:05;23.80;86.31
68251;DHT22;55066;51.560;4.642;2023-08-21T08:32:31;23.75;86.35
68251;DHT22;55066;51.560;4.642;2023-08-21T08:34:56;23.90;86.21
68251;DHT22;55066;51.560;4.642;2023-08-21T08:37:22;23.90;86.17
68251;DHT22;55066;51.560;4.642;2023-08-21T08:39:48;24.00;86.72
68251;DHT22;55066;51.560;4.642;2023-08-21T08:42:14;24.05;85.86
68251;DHT22;55066;51.560;4.642;2023-08-21T08:44:41;24.25;85.54
68251;DHT22;55066;51.560;4.642;2023-08-21T08:47:10;24.28;85.65
68251;DHT22;55066;51.560;4.642;2023-08-21T08:49:39;24.77;86.10
68251;DHT22;55066;51.560;4.642;2023-08-21T08:52:05;24.69;85.96
68251;DHT22;55066;51.560;4.642;2023-08-21T08:54:31;24.77;85.81
68251;DHT22;55066;51.560;4.642;2023-08-21T08:56:57;24.59;86.60
68251;DHT22;55066;51.560;4.642;2023-08-21T08:59:23;24.88;85.58
68251;DHT22;55066;51.560;4.642;2023-08-21T09:01:49;24.86;85.25
68251;DHT22;55066;51.560;4.642;2023-08-21T09:04:14;24.76;86.48
68251;DHT22;55066;51.560;4.642;2023-08-21T09:06:40;24.79;85.51
68251;DHT22;55066;51.560;4.642;2023-08-21T09:09:07;24.87;85.96
68251;DHT22;55066;51.560;4.642;2023-08-21T09:11:33;25.07;86.45
68251;DHT22;55066;51.560;4.642;2023-08-21T09:13:59;25.42;85.16
68251;DHT22;55066;51.560;4.642;2023-08-21T09:16:25;25.36;85.94
68251;DHT22;55066;51.560;4.642;2023-08-21T09:18:53;25.84;84.98
68251;DHT22;55066;51.560;4.642;2023-08-21T09:21:20;25.89;82.98
68251;DHT22;55066;51.560;4.642;2023-08-21T09:23:47;26.03;83.32
68251;DHT22;55066;51.560;4.642;2023-08-21T09:26:22;25.70;82.53
68251;DHT22;55066;51.560;4.642;2023-08-21T09:28:48;25.61;85.71
68251;DHT22;55066;51.560;4.642;2023-08-21T09:31:14;25.65;82.19
68251;DHT22;55066;51.560;4.642;2023-08-21T09:33:40;25.65;81.38
68251;DHT22;55066;51.560;4.642;2023-08-21T09:36:06;25.74;84.28
68251;DHT22;55066;51.560;4.642;2023-08-21T09:38:33;25.82;82.02
68251;DHT22;55066;51.560;4.642;2023-08-21T09:40:59;26.11;81.59
68251;DHT22;55066;51.560;4.642;2023-08-21T09:43:25;26.21;79.00
68251;DHT22;55066;51.560;4.642;2023-08-21T09:45:53;25.77;80.21
68251;DHT22;55066;51.560;4.642;2023-08-21T09:48:24;26.72;83.48
68251;DHT22;55066;51.560;4.642;2023-08-21T09:50:53;27.17;82.69
68251;DHT22;55066;51.560;4.642;2023-08-21T09:53:22;27.20;75.34
68251;DHT22;55066;51.560;4.642;2023-08-21T09:55:52;27.08;78.62
68251;DHT22;55066;51.560;4.642;2023-08-21T09:58:19;26.78;78.61
68251;DHT22;55066;51.560;4.642;2023-08-21T10:00:47;26.87;86.13
68251;DHT22;55066;51.560;4.642;2023-08-21T10:03:20;27.55;84.56
68251;DHT22;55066;51.560;4.642;2023-08-21T10:05:47;27.78;83.31
68251;DHT22;55066;51.560;4.642;2023-08-21T10:08:15;28.17;80.44
68251;DHT22;55066;51.560;4.642;2023-08-21T10:10:41;27.59;79.17
68251;DHT22;55066;51.560;4.642;2023-08-21T10:13:07;28.21;82.34
68251;DHT22;55066;51.560;4.642;2023-08-21T10:15:34;28.14;83.73
68251;DHT22;55066;51.560;4.642;2023-08-21T10:18:29;27.86;83.27
68251;DHT22;55066;51.560;4.642;2023-08-21T10:20:55;28.32;79.63
68251;DHT22;55066;51.560;4.642;2023-08-21T10:23:30;28.26;72.89
68251;DHT22;55066;51.560;4.642;2023-08-21T10:26:00;28.09;80.48
68251;DHT22;55066;51.560;4.642;2023-08-21T10:28:52;28.27;81.12
68251;DHT22;55066;51.560;4.642;2023-08-21T10:31:31;28.57;82.54
68251;DHT22;55066;51.560;4.642;2023-08-21T10:33:58;28.53;78.55
68251;DHT22;55066;51.560;4.642;2023-08-21T10:39:24;29.05;79.45
68251;DHT22;55066;51.560;4.642;2023-08-21T10:42:10;29.57;75.42
68251;DHT22;55066;51.560;4.642;2023-08-21T10:49:47;28.76;80.35
68251;DHT22;55066;51.560;4.642;2023-08-21T10:52:14;28.69;82.03
68251;DHT22;55066;51.560;4.642;2023-08-21T10:54:46;29.53;80.48
68251;DHT22;55066;51.560;4.642;2023-08-21T10:57:12;29.53;74.07
68251;DHT22;55066;51.560;4.642;2023-08-21T10:59:37;30.23;75.82
68251;DHT22;55066;51.560;4.642;2023-08-21T11:02:03;30.52;75.40
68251;DHT22;55066;51.560;4.642;2023-08-21T11:04:28;29.95;70.09
68251;DHT22;55066;51.560;4.642;2023-08-21T11:06:54;30.43;79.76
68251;DHT22;55066;51.560;4.642;2023-08-21T11:09:21;30.41;70.83
68251;DHT22;55066;51.560;4.642;2023-08-21T11:11:47;30.61;76.76
68251;DHT22;55066;51.560;4.642;2023-08-21T11:14:13;30.46;69.57
68251;DHT22;55066;51.560;4.642;2023-08-21T11:16:38;31.16;76.07
68251;DHT22;55066;51.560;4.642;2023-08-21T11:19:04;31.47;76.04
68251;DHT22;55066;51.560;4.642;2023-08-21T11:21:32;31.28;75.72
68251;DHT22;55066;51.560;4.642;2023-08-21T11:23:58;29.55;72.27
68251;DHT22;55066;51.560;4.642;2023-08-21T11:26:24;30.25;66.38
68251;DHT22;55066;51.560;4.642;2023-08-21T11:28:50;30.96;78.07
68251;DHT22;55066;51.560;4.642;2023-08-21T11:31:16;31.36;69.74
68251;DHT22;55066;51.560;4.642;2023-08-21T11:33:49;30.95;65.15
68251;DHT22;55066;51.560;4.642;2023-08-21T11:36:15;31.83;70.81
68251;DHT22;55066;51.560;4.642;2023-08-21T11:38:41;32.27;67.72
68251;DHT22;55066;51.560;4.642;2023-08-21T11:41:06;32.70;73.04
68251;DHT22;55066;51.560;4.642;2023-08-21T11:43:39;32.86;69.61
68251;DHT22;55066;51.560;4.642;2023-08-21T11:46:06;33.31;70.41
68251;DHT22;55066;51.560;4.642;2023-08-21T11:48:32;31.73;61.17
68251;DHT22;55066;51.560;4.642;2023-08-21T11:50:58;31.23;71.07
68251;DHT22;55066;51.560;4.642;2023-08-21T11:53:50;32.41;78.23
68251;DHT22;55066;51.560;4.642;2023-08-21T11:56:17;32.53;69.77
68251;DHT22;55066;51.560;4.642;2023-08-21T11:58:46;32.22;68.81
68251;DHT22;55066;51.560;4.642;2023-08-21T12:01:18;32.25;61.74
68251;DHT22;55066;51.560;4.642;2023-08-21T12:03:44;32.51;73.10
68251;DHT22;55066;51.560;4.642;2023-08-21T12:06:11;32.18;72.02
68251;DHT22;55066;51.560;4.642;2023-08-21T12:08:38;32.68;74.44
68251;DHT22;55066;51.560;4.642;2023-08-21T12:11:04;32.99;75.80
68251;DHT22;55066;51.560;4.642;2023-08-21T12:13:30;33.30;72.02
68251;DHT22;55066;51.560;4.642;2023-08-21T12:15:55;33.27;76.28
68251;DHT22;55066;51.560;4.642;2023-08-21T12:18:21;33.21;70.95
68251;DHT22;55066;51.560;4.642;2023-08-21T12:20:46;33.54;73.26
68251;DHT22;55066;51.560;4.642;2023-08-21T12:23:12;33.38;75.72
68251;DHT22;55066;51.560;4.642;2023-08-21T12:25:37;32.96;75.37
68251;DHT22;55066;51.560;4.642;2023-08-21T12:28:03;33.50;66.54
68251;DHT22;55066;51.560;4.642;2023-08-21T12:30:29;33.51;73.21
68251;DHT22;55066;51.560;4.642;2023-08-21T12:32:54;33.50;67.53
68251;DHT22;55066;51.560;4.642;2023-08-21T12:35:20;34.00;70.47
68251;DHT22;55066;51.560;4.642;2023-08-21T12:37:45;33.30;64.13
68251;DHT22;55066;51.560;4.642;2023-08-21T12:40:11;33.33;65.66
68251;DHT22;55066;51.560;4.642;2023-08-21T12:42:37;33.50;68.71
68251;DHT22;55066;51.560;4.642;2023-08-21T12:45:02;32.59;68.00
68251;DHT22;55066;51.560;4.642;2023-08-21T12:47:28;33.38;76.21
68251;DHT22;55066;51.560;4.642;2023-08-21T12:49:53;33.86;72.47
68251;DHT22;55066;51.560;4.642;2023-08-21T12:52:19;33.63;67.68
68251;DHT22;55066;51.560;4.642;2023-08-21T12:54:44;34.06;73.88
68251;DHT22;55066;51.560;4.642;2023-08-21T12:57:10;34.07;69.15
68251;DHT22;55066;51.560;4.642;2023-08-21T12:59:37;33.16;62.73
68251;DHT22;55066;51.560;4.642;2023-08-21T13:02:03;33.25;72.17
68251;DHT22;55066;51.560;4.642;2023-08-21T13:04:29;32.60;64.85
68251;DHT22;55066;51.560;4.642;2023-08-21T13:06:55;33.57;76.14
68251;DHT22;55066;51.560;4.642;2023-08-21T13:09:21;33.99;75.15
68251;DHT22;55066;51.560;4.642;2023-08-21T13:11:46;34.41;69.72
68251;DHT22;55066;51.560;4.642;2023-08-21T13:14:12;34.33;74.75
68251;DHT22;55066;51.560;4.642;2023-08-21T13:16:37;35.08;72.85
68251;DHT22;55066;51.560;4.642;2023-08-21T13:19:03;33.90;70.25
68251;DHT22;55066;51.560;4.642;2023-08-21T13:21:28;34.00;73.24
68251;DHT22;55066;51.560;4.642;2023-08-21T13:23:53;34.71;74.21
68251;DHT22;55066;51.560;4.642;2023-08-21T13:26:21;34.71;75.19
68251;DHT22;55066;51.560;4.642;2023-08-21T13:28:46;33.48;75.76
68251;DHT22;55066;51.560;4.642;2023-08-21T13:31:12;33.86;71.18
68251;DHT22;55066;51.560;4.642;2023-08-21T13:33:47;33.27;74.08
68251;DHT22;55066;51.560;4.642;2023-08-21T13:36:15;33.04;71.48
68251;DHT22;55066;51.560;4.642;2023-08-21T13:38:41;32.66;64.55
68251;DHT22;55066;51.560;4.642;2023-08-21T13:41:07;33.08;68.12
68251;DHT22;55066;51.560;4.642;2023-08-21T13:43:35;33.11;69.75
68251;DHT22;55066;51.560;4.642;2023-08-21T13:46:01;33.40;65.75
68251;DHT22;55066;51.560;4.642;2023-08-21T13:48:29;33.58;73.69
68251;DHT22;55066;51.560;4.642;2023-08-21T13:50:55;33.96;68.35
68251;DHT22;55066;51.560;4.642;2023-08-21T13:53:21;33.82;63.96
68251;DHT22;55066;51.560;4.642;2023-08-21T13:55:46;33.34;73.28
68251;DHT22;55066;51.560;4.642;2023-08-21T13:58:12;33.24;76.17
68251;DHT22;55066;51.560;4.642;2023-08-21T14:00:37;33.57;70.91
68251;DHT22;55066;51.560;4.642;2023-08-21T14:03:03;34.09;72.47
68251;DHT22;55066;51.560;4.642;2023-08-21T14:05:29;33.30;73.16
68251;DHT22;55066;51.560;4.642;2023-08-21T14:07:57;32.76;76.45
68251;DHT22;55066;51.560;4.642;2023-08-21T14:10:22;33.66;75.52
68251;DHT22;55066;51.560;4.642;2023-08-21T14:12:48;32.13;75.26
68251;DHT22;55066;51.560;4.642;2023-08-21T14:15:14;33.06;69.70
68251;DHT22;55066;51.560;4.642;2023-08-21T14:17:39;35.53;69.59
68251;DHT22;55066;51.560;4.642;2023-08-21T14:20:05;36.27;67.48
68251;DHT22;55066;51.560;4.642;2023-08-21T14:22:32;36.00;67.86
68251;DHT22;55066;51.560;4.642;2023-08-21T14:24:58;34.17;69.94
68251;DHT22;55066;51.560;4.642;2023-08-21T14:27:24;32.63;69.57
68251;DHT22;55066;51.560;4.642;2023-08-21T14:29:49;33.66;74.17
68251;DHT22;55066;51.560;4.642;2023-08-21T14:32:15;36.01;68.53
68251;DHT22;55066;51.560;4.642;2023-08-21T14:34:40;34.48;65.39
68251;DHT22;55066;51.560;4.642;2023-08-21T14:37:06;33.95;69.76
68251;DHT22;55066;51.560;4.642;2023-08-21T14:39:31;34.23;71.40
68251;DHT22;55066;51.560;4.642;2023-08-21T14:41:57;33.98;68.03
68251;DHT22;55066;51.560;4.642;2023-08-21T14:44:23;33.33;72.20
68251;DHT22;55066;51.560;4.642;2023-08-21T14:46:51;32.68;74.40
68251;DHT22;55066;51.560;4.642;2023-08-21T14:49:16;32.66;74.13
68251;DHT22;55066;51.560;4.642;2023-08-21T14:51:42;32.20;74.09
68251;DHT22;55066;51.560;4.642;2023-08-21T14:54:08;31.21;74.41
68251;DHT22;55066;51.560;4.642;2023-08-21T14:56:34;31.95;75.02
68251;DHT22;55066;51.560;4.642;2023-08-21T14:58:59;32.17;71.61
68251;DHT22;55066;51.560;4.642;2023-08-21T15:01:25;31.53;72.76
68251;DHT22;55066;51.560;4.642;2023-08-21T15:03:50;31.88;75.56
68251;DHT22;55066;51.560;4.642;2023-08-21T15:06:16;32.25;73.51
68251;DHT22;55066;51.560;4.642;2023-08-21T15:08:41;31.63;74.80
68251;DHT22;55066;51.560;4.642;2023-08-21T15:11:08;31.62;75.00
68251;DHT22;55066;51.560;4.642;2023-08-21T15:13:35;32.36;73.40
68251;DHT22;55066;51.560;4.642;2023-08-21T15:16:00;32.55;72.03
68251;DHT22;55066;51.560;4.642;2023-08-21T15:18:26;31.45;72.59
68251;DHT22;55066;51.560;4.642;2023-08-21T15:20:51;32.52;72.72
68251;DHT22;55066;51.560;4.642;2023-08-21T15:23:17;33.16;71.84
68251;DHT22;55066;51.560;4.642;2023-08-21T15:25:42;32.48;72.83
68251;DHT22;55066;51.560;4.642;2023-08-21T15:28:08;32.60;73.17
68251;DHT22;55066;51.560;4.642;2023-08-21T15:30:34;32.66;72.09
68251;DHT22;55066;51.560;4.642;2023-08-21T15:32:59;32.00;73.95
68251;DHT22;55066;51.560;4.642;2023-08-21T15:35:25;31.07;68.93
68251;DHT22;55066;51.560;4.642;2023-08-21T15:37:50;31.90;71.50